TAF and METAR

Decoding for American and Canadian METARs and TAFs is not fully implemented.

Could not understand the following METAR

KEBG 170255Z AUTO 13008KT 10SM CLR 29/23 A2994 RMK AO2 T02910230
No TAF available for South Texas International Airport at Edinburg
South Texas International Airport at Edinburg in Colombia at 24m

Latest 5 airports